createdAt,value
2022-07-30T00:00:27.708Z,96713.09
2022-07-30T00:01:29.427Z,96715.84
2022-07-30T00:02:31.102Z,96711.91
2022-07-30T00:03:34.012Z,96715.00
2022-07-30T00:04:35.878Z,96713.44
2022-07-30T00:05:37.626Z,96712.78
2022-07-30T00:06:39.994Z,96709.59
2022-07-30T00:07:41.740Z,96716.63
2022-07-30T00:08:43.342Z,96717.38
2022-07-30T00:09:45.097Z,96715.78
2022-07-30T00:10:46.680Z,96715.78
2022-07-30T00:11:51.995Z,96726.06
2022-07-30T00:12:53.655Z,96721.47
2022-07-30T00:13:55.659Z,96713.78
2022-07-30T00:14:57.289Z,96721.31
2022-07-30T00:15:58.940Z,96710.00
2022-07-30T00:17:02.032Z,96710.84
2022-07-30T00:18:05.323Z,96714.84
2022-07-30T00:19:07.085Z,96709.47
2022-07-30T00:20:10.579Z,96706.72
2022-07-30T00:21:34.666Z,96709.19
2022-07-30T00:22:36.635Z,96708.94
2022-07-30T00:23:38.258Z,96707.75
2022-07-30T00:24:39.864Z,96706.47
2022-07-30T00:25:41.505Z,96707.22
2022-07-30T00:26:43.116Z,96707.91
2022-07-30T00:27:45.422Z,96712.97
2022-07-30T00:28:47.101Z,96705.09
2022-07-30T00:29:49.282Z,96714.16
2022-07-30T00:30:52.729Z,96714.25
2022-07-30T00:31:57.992Z,96717.50
2022-07-30T00:32:59.657Z,96715.56
2022-07-30T00:34:01.354Z,96712.38
2022-07-30T00:35:03.495Z,96711.53
2022-07-30T00:36:05.248Z,96707.91
2022-07-30T00:37:06.866Z,96707.13
2022-07-30T00:38:08.493Z,96712.44
2022-07-30T00:39:10.142Z,96711.25
2022-07-30T00:40:11.912Z,96707.41
2022-07-30T00:41:15.577Z,96706.69
2022-07-30T00:42:23.462Z,96708.59
2022-07-30T00:43:25.071Z,96707.41
2022-07-30T00:44:27.980Z,96708.50
2022-07-30T00:45:29.723Z,96711.16
2022-07-30T00:46:31.419Z,96715.13
2022-07-30T00:47:33.069Z,96708.88
2022-07-30T00:48:34.634Z,96711.16
2022-07-30T00:49:36.213Z,96709.97
2022-07-30T00:50:38.680Z,96706.91
2022-07-30T00:51:40.254Z,96708.94
2022-07-30T00:52:42.932Z,96711.34
2022-07-30T00:53:44.532Z,96709.19
2022-07-30T00:54:46.093Z,96709.75
2022-07-30T00:55:47.911Z,96705.38
2022-07-30T00:56:50.002Z,96710.00
2022-07-30T00:57:51.627Z,96702.50
2022-07-30T00:58:53.245Z,96703.41
2022-07-30T00:59:55.646Z,96707.56
2022-07-30T01:00:57.472Z,96707.50
2022-07-30T01:02:01.746Z,96697.84
2022-07-30T01:03:04.786Z,96705.88
2022-07-30T01:04:11.499Z,96708.75
2022-07-30T01:05:13.783Z,96711.25
2022-07-30T01:06:15.712Z,96707.22
2022-07-30T01:07:17.436Z,96708.09
2022-07-30T01:08:19.029Z,96706.63
2022-07-30T01:09:20.803Z,96703.41
2022-07-30T01:10:22.675Z,96704.97
2022-07-30T01:11:32.496Z,96703.34
2022-07-30T01:12:34.353Z,96702.94
2022-07-30T01:13:36.012Z,96703.78
2022-07-30T01:14:38.561Z,96703.34
2022-07-30T01:15:40.536Z,96699.50
2022-07-30T01:16:43.257Z,96703.03
2022-07-30T01:17:52.757Z,96703.19
2022-07-30T01:19:16.624Z,96702.09
2022-07-30T01:20:26.814Z,96696.81
2022-07-30T01:21:37.402Z,96700.13
2022-07-30T01:22:55.326Z,96702.19
2022-07-30T01:24:06.749Z,96704.72
2022-07-30T01:25:24.035Z,96701.81
2022-07-30T01:26:26.591Z,96699.00
2022-07-30T01:27:49.407Z,96703.97
2022-07-30T01:28:56.081Z,96702.31
2022-07-30T01:29:59.656Z,96706.06
2022-07-30T01:31:03.882Z,96706.44
2022-07-30T01:32:07.765Z,96701.72
2022-07-30T01:33:14.988Z,96696.19
2022-07-30T01:34:17.689Z,96703.56
2022-07-30T01:35:21.817Z,96702.38
2022-07-30T01:36:24.349Z,96700.34
2022-07-30T01:37:28.149Z,96705.72
2022-07-30T01:38:35.191Z,96700.19
2022-07-30T01:39:38.664Z,96698.91
2022-07-30T01:40:42.969Z,96701.66
2022-07-30T01:41:45.271Z,96701.66
2022-07-30T01:42:53.527Z,96700.13
2022-07-30T01:43:55.982Z,96695.41
2022-07-30T01:44:59.105Z,96700.19
2022-07-30T01:46:02.953Z,96695.63
2022-07-30T01:47:05.551Z,96701.16
2022-07-30T01:48:09.925Z,96699.78
2022-07-30T01:49:12.344Z,96701.44
2022-07-30T01:50:15.225Z,96699.69
2022-07-30T01:51:19.389Z,96695.94
2022-07-30T01:52:22.567Z,96702.44
2022-07-30T01:53:26.177Z,96700.69
2022-07-30T01:54:29.562Z,96700.31
2022-07-30T01:55:41.002Z,96705.41
2022-07-30T01:56:44.437Z,96708.53
2022-07-30T01:57:48.986Z,96714.09
2022-07-30T01:58:52.530Z,96709.47
2022-07-30T02:00:01.929Z,96711.81
2022-07-30T02:01:04.041Z,96707.16
2022-07-30T02:02:07.561Z,96706.25
2022-07-30T02:03:10.821Z,96708.63
2022-07-30T02:04:12.498Z,96710.44
2022-07-30T02:05:14.687Z,96705.44
2022-07-30T02:06:26.589Z,96706.69
2022-07-30T02:07:36.866Z,96705.78
2022-07-30T02:08:41.881Z,96708.00
2022-07-30T02:10:05.464Z,96712.59
2022-07-30T02:11:36.658Z,96705.41
2022-07-30T02:12:47.313Z,96708.44
2022-07-30T02:13:53.080Z,96714.63
2022-07-30T02:15:11.761Z,96711.47
2022-07-30T02:16:27.281Z,96709.59
2022-07-30T02:18:01.077Z,96703.00
2022-07-30T02:19:06.783Z,96712.16
2022-07-30T02:20:11.333Z,96705.78
2022-07-30T02:21:19.364Z,96705.91
2022-07-30T02:22:23.412Z,96712.38
2022-07-30T02:23:28.255Z,96702.78
2022-07-30T02:24:32.301Z,96705.13
2022-07-30T02:25:35.969Z,96704.66
2022-07-30T02:26:38.873Z,96706.94
2022-07-30T02:27:45.128Z,96703.94
2022-07-30T02:28:51.368Z,96701.63
2022-07-30T02:29:55.773Z,96706.59
2022-07-30T02:31:00.109Z,96697.47
2022-07-30T02:32:09.427Z,96701.25
2022-07-30T02:33:14.116Z,96697.81
2022-07-30T02:34:17.128Z,96699.84
2022-07-30T02:35:21.241Z,96694.44
2022-07-30T02:36:24.218Z,96696.63
2022-07-30T02:37:42.805Z,96690.66
2022-07-30T02:38:46.942Z,96689.41
2022-07-30T02:39:51.050Z,96690.38
2022-07-30T02:40:54.672Z,96686.09
2022-07-30T02:41:58.019Z,96690.38
2022-07-30T02:43:00.932Z,96693.56
2022-07-30T02:44:04.455Z,96696.34
2022-07-30T02:45:07.300Z,96696.03
2022-07-30T02:46:12.061Z,96690.16
2022-07-30T02:47:16.618Z,96698.72
2022-07-30T02:48:34.185Z,96697.53
2022-07-30T02:49:37.068Z,96697.03
2022-07-30T02:50:40.216Z,96698.38
2022-07-30T02:51:42.985Z,96695.56
2022-07-30T02:52:45.344Z,96698.91
2022-07-30T02:53:51.831Z,96696.44
2022-07-30T02:54:56.328Z,96695.53
2022-07-30T02:56:01.240Z,96698.59
2022-07-30T02:57:04.397Z,96697.72
2022-07-30T02:58:07.636Z,96696.47
2022-07-30T02:59:11.156Z,96692.84
2022-07-30T03:00:13.520Z,96700.22
2022-07-30T03:01:18.320Z,96689.56
2022-07-30T03:02:25.900Z,96703.59
2022-07-30T03:03:32.789Z,96694.97
2022-07-30T03:04:36.479Z,96698.13
2022-07-30T03:05:41.501Z,96693.06
2022-07-30T03:06:44.022Z,96697.34
2022-07-30T03:07:46.588Z,96693.41
2022-07-30T03:08:48.521Z,96696.25
2022-07-30T03:09:53.423Z,96700.69
2022-07-30T03:10:56.494Z,96696.72
2022-07-30T03:11:59.048Z,96695.16
2022-07-30T03:13:02.367Z,96689.59
2022-07-30T03:14:04.275Z,96692.72
2022-07-30T03:15:06.680Z,96689.50
2022-07-30T03:16:10.809Z,96689.50
2022-07-30T03:17:16.024Z,96695.78
2022-07-30T03:18:19.184Z,96694.97
2022-07-30T03:19:24.024Z,96700.44
2022-07-30T03:20:29.635Z,96703.53
2022-07-30T03:21:34.813Z,96695.69
2022-07-30T03:22:41.787Z,96698.47
2022-07-30T03:23:45.150Z,96703.53
2022-07-30T03:24:49.301Z,96699.59
2022-07-30T03:26:02.183Z,96691.41
2022-07-30T03:27:05.510Z,96698.03
2022-07-30T03:28:08.392Z,96695.69
2022-07-30T03:29:11.821Z,96694.91
2022-07-30T03:30:13.858Z,96699.00
2022-07-30T03:31:16.981Z,96698.59
2022-07-30T03:32:20.199Z,96699.06
2022-07-30T03:33:38.092Z,96695.19
2022-07-30T03:34:42.381Z,96701.75
2022-07-30T03:35:47.198Z,96698.81
2022-07-30T03:36:49.964Z,96701.97
2022-07-30T03:37:51.924Z,96703.53
2022-07-30T03:38:54.564Z,96695.91
2022-07-30T03:39:58.185Z,96697.16
2022-07-30T03:41:00.676Z,96696.84
2022-07-30T03:42:03.576Z,96703.06
2022-07-30T03:43:05.233Z,96705.00
2022-07-30T03:44:21.359Z,96703.06
2022-07-30T03:45:23.447Z,96701.06
2022-07-30T03:46:26.576Z,96707.50
2022-07-30T03:47:28.522Z,96701.13
2022-07-30T03:48:33.568Z,96711.94
2022-07-30T03:49:35.255Z,96707.94
2022-07-30T03:50:37.928Z,96711.72
2022-07-30T03:51:39.895Z,96720.53
2022-07-30T03:52:42.052Z,96716.13
2022-07-30T03:53:45.218Z,96714.41
2022-07-30T03:54:48.606Z,96717.47
2022-07-30T03:55:52.021Z,96718.25
2022-07-30T03:56:53.887Z,96719.00
2022-07-30T03:57:55.735Z,96717.47
2022-07-30T03:58:57.438Z,96715.25
2022-07-30T03:59:59.177Z,96716.38
2022-07-30T04:01:00.906Z,96723.00
2022-07-30T04:02:06.902Z,96724.47
2022-07-30T04:03:10.564Z,96724.56
2022-07-30T04:04:12.252Z,96720.66
2022-07-30T04:05:14.952Z,96720.56
2022-07-30T04:06:16.577Z,96717.06
2022-07-30T04:07:18.502Z,96717.84
2022-07-30T04:08:20.361Z,96725.19
2022-07-30T04:09:22.926Z,96720.81
2022-07-30T04:10:24.530Z,96724.94
2022-07-30T04:11:41.318Z,96724.81
2022-07-30T04:12:43.522Z,96722.38
2022-07-30T04:13:45.199Z,96723.88
2022-07-30T04:14:47.896Z,96721.38
2022-07-30T04:16:34.324Z,96728.25
2022-07-30T04:17:22.174Z,96731.25
2022-07-30T04:18:26.912Z,96729.56
2022-07-30T04:19:36.837Z,96733.38
2022-07-30T04:20:43.557Z,96735.50
2022-07-30T04:21:48.271Z,96739.28
2022-07-30T04:22:51.083Z,96734.78
2022-07-30T04:24:04.082Z,96738.53
2022-07-30T04:25:08.828Z,96725.41
2022-07-30T04:26:10.799Z,96735.16
2022-07-30T04:27:12.860Z,96742.09
2022-07-30T04:28:14.852Z,96738.81
2022-07-30T04:29:21.417Z,96735.88
2022-07-30T04:30:27.666Z,96742.19
2022-07-30T04:31:40.724Z,96741.03
2022-07-30T04:32:43.255Z,96740.78
2022-07-30T04:33:47.968Z,96733.66
2022-07-30T04:34:51.844Z,96736.69
2022-07-30T04:35:53.974Z,96738.09
2022-07-30T04:36:55.597Z,96737.53
2022-07-30T04:37:57.643Z,96738.31
2022-07-30T04:39:00.508Z,96739.59
2022-07-30T04:40:02.155Z,96740.03
2022-07-30T04:41:04.016Z,96745.38
2022-07-30T04:42:05.636Z,96738.59
2022-07-30T04:43:08.196Z,96737.56
2022-07-30T04:44:09.799Z,96740.47
2022-07-30T04:45:11.779Z,96734.47
2022-07-30T04:46:15.491Z,96747.03
2022-07-30T04:47:21.707Z,96735.88
2022-07-30T04:48:23.485Z,96736.06
2022-07-30T04:49:26.217Z,96735.59
2022-07-30T04:50:29.165Z,96743.78
2022-07-30T04:51:34.515Z,96737.06
2022-07-30T04:52:36.629Z,96739.47
2022-07-30T04:53:38.481Z,96737.78
2022-07-30T04:54:46.216Z,96730.78
2022-07-30T04:55:49.389Z,96737.28
2022-07-30T04:57:00.886Z,96739.94
2022-07-30T04:58:04.105Z,96743.28
2022-07-30T04:59:06.909Z,96737.97
2022-07-30T05:00:09.184Z,96742.91
2022-07-30T05:01:12.563Z,96745.66
2022-07-30T05:02:16.511Z,96746.66
2022-07-30T05:03:19.191Z,96740.41
2022-07-30T05:04:23.595Z,96743.78
2022-07-30T05:05:26.963Z,96741.28
2022-07-30T05:06:30.456Z,96744.94
2022-07-30T05:07:32.964Z,96747.34
2022-07-30T05:08:35.143Z,96740.59
2022-07-30T05:09:37.146Z,96736.13
2022-07-30T05:10:38.881Z,96739.34
2022-07-30T05:11:40.589Z,96743.03
2022-07-30T05:12:42.206Z,96740.72
2022-07-30T05:13:46.130Z,96739.47
2022-07-30T05:14:48.685Z,96745.22
2022-07-30T05:15:50.416Z,96744.47
2022-07-30T05:16:53.359Z,96737.44
2022-07-30T05:17:54.963Z,96744.16
2022-07-30T05:18:56.592Z,96735.78
2022-07-30T05:19:58.853Z,96733.06
2022-07-30T05:21:01.505Z,96728.91
2022-07-30T05:22:06.681Z,96725.03
2022-07-30T05:23:08.775Z,96730.19
2022-07-30T05:24:10.521Z,96723.34
2022-07-30T05:25:16.080Z,96722.03
2022-07-30T05:26:21.905Z,96717.66
2022-07-30T05:27:29.355Z,96720.16
2022-07-30T05:28:31.166Z,96720.47
2022-07-30T05:29:32.897Z,96718.28
2022-07-30T05:30:34.535Z,96716.41
2022-07-30T05:31:38.094Z,96717.69
2022-07-30T05:32:39.876Z,96713.53
2022-07-30T05:33:42.851Z,96708.16
2022-07-30T05:34:45.114Z,96711.03
2022-07-30T05:35:51.829Z,96714.66
2022-07-30T05:36:53.595Z,96720.81
2022-07-30T05:37:55.149Z,96725.00
2022-07-30T05:38:56.948Z,96721.53
2022-07-30T05:40:02.852Z,96715.88
2022-07-30T05:41:05.192Z,96718.09
2022-07-30T05:42:26.761Z,96724.13
2022-07-30T05:43:28.356Z,96716.44
2022-07-30T05:44:30.107Z,96715.69
2022-07-30T05:45:31.860Z,96709.81
2022-07-30T05:46:33.853Z,96714.13
2022-07-30T05:47:36.030Z,96711.69
2022-07-30T05:48:37.709Z,96716.00
2022-07-30T05:49:39.356Z,96719.41
2022-07-30T05:50:41.056Z,96726.47
2022-07-30T05:51:42.889Z,96727.06
2022-07-30T05:52:46.349Z,96725.25
2022-07-30T05:53:48.110Z,96723.91
2022-07-30T05:54:49.745Z,96728.06
2022-07-30T05:55:51.359Z,96724.22
2022-07-30T05:56:53.066Z,96728.00
2022-07-30T05:57:54.746Z,96724.47
2022-07-30T05:58:56.396Z,96736.91
2022-07-30T05:59:58.027Z,96725.59
2022-07-30T06:00:59.573Z,96729.44
2022-07-30T06:02:03.246Z,96726.66
2022-07-30T06:03:05.079Z,96724.84
2022-07-30T06:04:06.746Z,96727.75
2022-07-30T06:05:08.839Z,96735.75
2022-07-30T06:06:10.573Z,96727.16
2022-07-30T06:07:12.156Z,96732.06
2022-07-30T06:08:13.782Z,96735.75
2022-07-30T06:09:15.572Z,96726.97
2022-07-30T06:10:17.501Z,96725.31
2022-07-30T06:11:19.464Z,96730.22
2022-07-30T06:12:21.081Z,96729.59
2022-07-30T06:13:22.709Z,96731.09
2022-07-30T06:14:24.564Z,96735.97
2022-07-30T06:15:26.478Z,96735.34
2022-07-30T06:16:28.272Z,96729.50
2022-07-30T06:17:30.159Z,96730.72
2022-07-30T06:18:32.130Z,96734.25
2022-07-30T06:19:33.755Z,96727.38
2022-07-30T06:20:35.392Z,96726.63
2022-07-30T06:22:06.092Z,96727.50
2022-07-30T06:22:58.700Z,96722.72
2022-07-30T06:24:00.317Z,96725.78
2022-07-30T06:25:01.995Z,96727.63
2022-07-30T06:26:04.938Z,96728.09
2022-07-30T06:27:06.599Z,96720.00
2022-07-30T06:28:34.749Z,96720.16
2022-07-30T06:29:29.972Z,96713.84
2022-07-30T06:30:31.689Z,96722.16
2022-07-30T06:31:34.318Z,96708.00
2022-07-30T06:32:36.618Z,96710.41
2022-07-30T06:33:38.385Z,96705.56
2022-07-30T06:34:40.030Z,96704.00
2022-07-30T06:35:42.063Z,96706.47
2022-07-30T06:36:43.658Z,96698.69
2022-07-30T06:38:05.771Z,96698.22
2022-07-30T06:39:06.884Z,96702.97
2022-07-30T06:40:09.270Z,96705.28
2022-07-30T06:41:11.041Z,96698.56
2022-07-30T06:42:12.674Z,96702.81
2022-07-30T06:43:14.352Z,96709.13
2022-07-30T06:44:15.954Z,96700.56
2022-07-30T06:45:18.007Z,96700.72
2022-07-30T06:46:19.689Z,96697.97
2022-07-30T06:47:26.227Z,96701.66
2022-07-30T06:48:29.903Z,96696.72
2022-07-30T06:49:32.881Z,96691.50
2022-07-30T06:50:36.837Z,96687.84
2022-07-30T06:51:38.455Z,96694.25
2022-07-30T06:52:40.073Z,96689.00
2022-07-30T06:53:42.713Z,96688.81
2022-07-30T06:54:44.562Z,96690.16
2022-07-30T06:55:46.225Z,96685.50
2022-07-30T06:56:47.906Z,96689.16
2022-07-30T06:57:49.543Z,96691.28
2022-07-30T06:58:51.228Z,96682.25
2022-07-30T06:59:56.209Z,96684.78
2022-07-30T07:00:59.194Z,96686.63
2022-07-30T07:02:00.879Z,96687.47
2022-07-30T07:03:02.460Z,96682.50
2022-07-30T07:04:04.364Z,96681.06
2022-07-30T07:05:07.464Z,96683.72
2022-07-30T07:06:09.296Z,96684.47
2022-07-30T07:07:13.895Z,96682.56
2022-07-30T07:08:38.879Z,96679.16
2022-07-30T07:09:44.590Z,96681.38
2022-07-30T07:10:46.767Z,96680.72
2022-07-30T07:11:48.365Z,96678.69
2022-07-30T07:12:49.986Z,96678.19
2022-07-30T07:13:51.603Z,96677.66
2022-07-30T07:14:53.241Z,96673.66
2022-07-30T07:15:55.499Z,96673.88
2022-07-30T07:16:57.107Z,96677.22
2022-07-30T07:17:58.714Z,96673.22
2022-07-30T07:19:04.101Z,96671.38
2022-07-30T07:20:06.359Z,96673.69
2022-07-30T07:21:08.365Z,96672.69
2022-07-30T07:22:09.944Z,96675.03
2022-07-30T07:23:12.234Z,96664.25
2022-07-30T07:24:14.060Z,96670.09
2022-07-30T07:25:16.035Z,96668.69
2022-07-30T07:26:17.769Z,96671.28
2022-07-30T07:27:19.407Z,96668.91
2022-07-30T07:28:21.135Z,96670.72
2022-07-30T07:29:22.802Z,96657.88
2022-07-30T07:30:24.598Z,96659.56
2022-07-30T07:32:05.201Z,96661.09
2022-07-30T07:32:47.982Z,96658.38
2022-07-30T07:33:49.614Z,96668.41
2022-07-30T07:34:51.219Z,96658.44
2022-07-30T07:35:54.816Z,96658.06
2022-07-30T07:36:56.562Z,96664.84
2022-07-30T07:37:58.183Z,96658.38
2022-07-30T07:38:59.816Z,96657.44
2022-07-30T07:40:01.571Z,96653.41
2022-07-30T07:41:03.238Z,96652.03
2022-07-30T07:42:04.905Z,96655.38
2022-07-30T07:43:06.533Z,96647.44
2022-07-30T07:44:08.625Z,96651.81
2022-07-30T07:45:10.721Z,96647.19
2022-07-30T07:46:16.460Z,96647.44
2022-07-30T07:47:19.079Z,96645.97
2022-07-30T07:48:20.853Z,96645.44
2022-07-30T07:49:22.503Z,96648.28
2022-07-30T07:50:24.317Z,96640.03
2022-07-30T07:51:46.924Z,96645.66
2022-07-30T07:52:47.717Z,96639.47
2022-07-30T07:54:18.728Z,96639.66
2022-07-30T07:55:11.516Z,96647.56
2022-07-30T07:56:15.813Z,96651.41
2022-07-30T07:57:17.448Z,96646.59
2022-07-30T07:58:25.435Z,96651.19
2022-07-30T07:59:39.633Z,96645.75
2022-07-30T08:00:42.557Z,96646.03
2022-07-30T08:01:46.623Z,96640.75
2022-07-30T08:02:49.568Z,96641.63
2022-07-30T08:03:51.431Z,96640.19
2022-07-30T08:04:53.988Z,96640.28
2022-07-30T08:06:04.692Z,96640.19
2022-07-30T08:07:08.132Z,96640.34
2022-07-30T08:08:09.770Z,96631.59
2022-07-30T08:09:17.432Z,96635.59
2022-07-30T08:10:19.106Z,96629.09
2022-07-30T08:11:20.717Z,96633.84
2022-07-30T08:12:22.437Z,96631.31
2022-07-30T08:13:51.585Z,96628.22
2022-07-30T08:14:48.214Z,96622.84
2022-07-30T08:15:50.246Z,96623.75
2022-07-30T08:16:51.866Z,96620.50
2022-07-30T08:17:53.692Z,96622.25
2022-07-30T08:18:55.354Z,96619.56
2022-07-30T08:20:00.765Z,96625.94
2022-07-30T08:21:02.644Z,96623.66
2022-07-30T08:22:04.219Z,96609.47
2022-07-30T08:23:07.105Z,96612.69
2022-07-30T08:24:08.903Z,96611.97
2022-07-30T08:25:10.636Z,96611.72
2022-07-30T08:26:12.320Z,96609.56
2022-07-30T08:27:13.918Z,96610.34
2022-07-30T08:28:35.364Z,96606.22
2022-07-30T08:29:37.426Z,96601.63
2022-07-30T08:30:39.069Z,96602.06
2022-07-30T08:31:40.663Z,96599.78
2022-07-30T08:32:42.275Z,96600.63
2022-07-30T08:33:43.851Z,96597.88
2022-07-30T08:34:45.467Z,96591.94
2022-07-30T08:35:54.851Z,96584.06
2022-07-30T08:37:00.847Z,96590.69
2022-07-30T08:38:02.429Z,96585.44
2022-07-30T08:39:04.058Z,96590.50
2022-07-30T08:40:06.215Z,96585.38
2022-07-30T08:41:08.263Z,96584.28
2022-07-30T08:42:10.193Z,96587.72
2022-07-30T08:43:11.819Z,96582.88
2022-07-30T08:44:13.469Z,96588.94
2022-07-30T08:45:17.552Z,96589.91
2022-07-30T08:46:23.562Z,96585.00
2022-07-30T08:47:32.464Z,96579.34
2022-07-30T08:48:35.248Z,96585.09
2022-07-30T08:49:37.984Z,96581.31
2022-07-30T08:50:40.053Z,96573.56
2022-07-30T08:51:42.445Z,96581.00
2022-07-30T08:52:44.698Z,96580.09
2022-07-30T08:53:47.190Z,96575.41
2022-07-30T08:54:48.877Z,96574.00
2022-07-30T08:55:50.679Z,96574.06
2022-07-30T08:56:52.608Z,96568.78
2022-07-30T08:57:54.812Z,96566.03
2022-07-30T08:58:57.355Z,96568.09
2022-07-30T09:00:01.327Z,96562.59
2022-07-30T09:01:06.025Z,96560.41
2022-07-30T09:02:12.462Z,96563.19
2022-07-30T09:03:14.599Z,96559.16
2022-07-30T09:04:16.161Z,96555.56
2022-07-30T09:05:17.840Z,96560.88
2022-07-30T09:06:19.812Z,96563.13
2022-07-30T09:07:21.536Z,96557.22
2022-07-30T09:08:23.381Z,96556.44
2022-07-30T09:09:25.062Z,96556.00
2022-07-30T09:10:27.082Z,96552.03
2022-07-30T09:11:28.741Z,96550.16
2022-07-30T09:12:40.882Z,96554.00
2022-07-30T09:13:44.469Z,96548.50
2022-07-30T09:15:20.223Z,96550.72
2022-07-30T09:16:24.580Z,96551.56
2022-07-30T09:17:28.872Z,96540.75
2022-07-30T09:18:37.912Z,96538.63
2022-07-30T09:19:39.544Z,96535.25
2022-07-30T09:20:41.238Z,96542.41
2022-07-30T09:21:43.400Z,96535.22
2022-07-30T09:22:51.780Z,96535.47
2022-07-30T09:24:03.275Z,96529.47
2022-07-30T09:25:05.024Z,96522.22
2022-07-30T09:26:06.811Z,96520.34
2022-07-30T09:27:10.103Z,96521.97
2022-07-30T09:28:16.045Z,96519.69
2022-07-30T09:29:20.711Z,96524.50
2022-07-30T09:30:22.512Z,96517.78
2022-07-30T09:31:24.289Z,96519.38
2022-07-30T09:32:25.883Z,96509.31
2022-07-30T09:33:40.237Z,96509.66
2022-07-30T09:34:42.068Z,96508.41
2022-07-30T09:35:43.880Z,96498.41
2022-07-30T09:36:45.682Z,96505.16
2022-07-30T09:37:47.994Z,96496.38
2022-07-30T09:38:52.632Z,96498.00
2022-07-30T09:39:58.867Z,96496.69
2022-07-30T09:41:04.942Z,96494.25
2022-07-30T09:42:22.845Z,96490.38
2022-07-30T09:43:27.681Z,96494.75
2022-07-30T09:44:30.395Z,96487.22
2022-07-30T09:45:34.822Z,96490.59
2022-07-30T09:46:47.101Z,96493.34
2022-07-30T09:47:49.411Z,96490.72
2022-07-30T09:48:51.075Z,96491.44
2022-07-30T09:51:56.278Z,96488.75
2022-07-30T09:53:11.839Z,96491.06
2022-07-30T09:54:13.946Z,96488.47
2022-07-30T09:55:30.705Z,96481.91
2022-07-30T09:56:32.334Z,96479.41
2022-07-30T09:57:34.119Z,96480.34
2022-07-30T09:58:40.676Z,96476.38
2022-07-30T09:59:47.945Z,96481.41
2022-07-30T10:00:58.117Z,96474.53
2022-07-30T10:02:03.837Z,96479.19
2022-07-30T10:03:21.624Z,96474.53
2022-07-30T10:04:36.558Z,96481.16
2022-07-30T10:05:53.541Z,96473.81
2022-07-30T10:06:56.545Z,96469.03
2022-07-30T10:08:02.602Z,96470.63
2022-07-30T10:09:14.180Z,96469.44
2022-07-30T10:10:20.842Z,96469.56
2022-07-30T10:11:23.953Z,96470.78
2022-07-30T10:12:26.636Z,96467.03
2022-07-30T10:13:29.563Z,96465.84
2022-07-30T10:14:42.250Z,96466.94
2022-07-30T10:15:45.141Z,96459.44
2022-07-30T10:16:47.496Z,96456.41
2022-07-30T10:17:49.846Z,96449.84
2022-07-30T10:18:52.209Z,96454.38
2022-07-30T10:19:54.749Z,96457.44
2022-07-30T10:20:56.619Z,96454.38
2022-07-30T10:22:01.470Z,96457.19
2022-07-30T10:23:09.245Z,96464.53
2022-07-30T10:24:12.873Z,96456.44
2022-07-30T10:25:23.230Z,96452.13
2022-07-30T10:26:34.806Z,96446.56
2022-07-30T10:27:37.221Z,96453.44
2022-07-30T10:28:42.871Z,96457.22
2022-07-30T10:29:45.272Z,96455.97
2022-07-30T10:30:50.144Z,96449.63
2022-07-30T10:31:54.426Z,96460.03
2022-07-30T10:32:58.659Z,96447.09
2022-07-30T10:34:02.438Z,96449.41
2022-07-30T10:35:05.392Z,96437.94
2022-07-30T10:36:10.321Z,96441.94
2022-07-30T10:37:13.490Z,96432.53
2022-07-30T10:38:17.348Z,96442.47
2022-07-30T10:39:24.731Z,96437.91
2022-07-30T10:40:35.853Z,96437.69
2022-07-30T10:42:05.616Z,96438.75
2022-07-30T10:43:17.240Z,96441.03
2022-07-30T10:44:28.188Z,96436.22
2022-07-30T10:45:46.324Z,96429.63
2022-07-30T10:47:07.527Z,96424.28
2022-07-30T10:48:10.947Z,96429.84
2022-07-30T10:49:18.500Z,96420.97
2022-07-30T10:50:26.746Z,96413.63
2022-07-30T10:51:48.923Z,96414.88
2022-07-30T10:52:57.956Z,96416.41
2022-07-30T10:53:59.653Z,96405.72
2022-07-30T10:55:01.267Z,96410.53
2022-07-30T10:56:19.203Z,96404.94
2022-07-30T10:57:32.191Z,96401.16
2022-07-30T10:58:57.161Z,96403.72
2022-07-30T11:00:04.022Z,96405.97
2022-07-30T11:01:06.093Z,96410.53
2022-07-30T11:02:20.535Z,96407.25
2022-07-30T11:03:40.750Z,96405.69
2022-07-30T11:04:46.847Z,96403.66
2022-07-30T11:05:50.449Z,96404.69
2022-07-30T11:07:17.268Z,96405.97
2022-07-30T11:08:42.607Z,96398.66
2022-07-30T11:09:44.772Z,96401.47
2022-07-30T11:12:01.905Z,96397.19
2022-07-30T11:12:53.011Z,96409.56
2022-07-30T11:13:57.435Z,96400.19
2022-07-30T11:15:06.489Z,96396.91
2022-07-30T11:16:21.933Z,96387.50
2022-07-30T11:17:24.129Z,96395.38
2022-07-30T11:18:27.556Z,96391.56
2022-07-30T11:19:53.391Z,96384.44
2022-07-30T11:21:16.026Z,96387.50
2022-07-30T11:22:31.631Z,96386.75
2022-07-30T11:23:39.523Z,96378.63
2022-07-30T11:24:47.104Z,96376.84
2022-07-30T11:25:54.794Z,96377.63
2022-07-30T11:26:56.758Z,96368.22
2022-07-30T11:28:00.767Z,96372.03
2022-07-30T11:29:04.230Z,96365.69
2022-07-30T11:30:27.018Z,96366.19
2022-07-30T11:31:55.031Z,96368.22
2022-07-30T11:33:18.653Z,96364.41
2022-07-30T11:34:20.596Z,96369.47
2022-07-30T11:35:34.613Z,96359.59
2022-07-30T11:36:37.766Z,96359.84
2022-07-30T11:38:07.466Z,96352.75
2022-07-30T11:39:10.088Z,96357.59
2022-07-30T11:40:12.971Z,96362.19
2022-07-30T11:41:14.589Z,96355.84
2022-07-30T11:42:36.739Z,96356.06
2022-07-30T11:43:41.566Z,96354.81
2022-07-30T11:44:46.900Z,96351.25
2022-07-30T11:45:53.499Z,96350.00
2022-07-30T11:46:55.862Z,96358.63
2022-07-30T11:48:00.254Z,96348.97
2022-07-30T11:49:08.278Z,96342.91
2022-07-30T11:50:31.343Z,96351.50
2022-07-30T11:51:44.046Z,96347.72
2022-07-30T11:52:52.156Z,96347.72
2022-07-30T11:54:05.316Z,96347.69
2022-07-30T11:55:07.385Z,96341.34
2022-07-30T11:56:10.481Z,96352.00
2022-07-30T11:57:16.348Z,96346.38
2022-07-30T11:58:26.973Z,96341.81
2022-07-30T11:59:28.561Z,96336.53
2022-07-30T12:00:47.963Z,96346.38
2022-07-30T12:01:56.923Z,96349.69
2022-07-30T12:03:02.411Z,96330.19
2022-07-30T12:04:06.972Z,96334.75
2022-07-30T12:05:08.735Z,96337.78
2022-07-30T12:06:21.294Z,96345.84
2022-07-30T12:07:25.854Z,96344.34
2022-07-30T12:08:35.826Z,96339.28
2022-07-30T12:09:38.012Z,96336.75
2022-07-30T12:10:57.458Z,96338.06
2022-07-30T12:12:00.987Z,96340.34
2022-07-30T12:13:14.083Z,96334.03
2022-07-30T12:14:15.751Z,96330.72
2022-07-30T12:15:32.487Z,96333.78
2022-07-30T12:16:34.664Z,96335.56
2022-07-30T12:17:44.029Z,96326.69
2022-07-30T12:18:47.157Z,96321.09
2022-07-30T12:19:49.169Z,96332.50
2022-07-30T12:20:59.610Z,96331.25
2022-07-30T12:22:01.494Z,96321.38
2022-07-30T12:23:09.681Z,96324.41
2022-07-30T12:24:11.692Z,96313.00
2022-07-30T12:25:14.584Z,96315.03
2022-07-30T12:26:27.732Z,96316.56
2022-07-30T12:27:29.358Z,96314.25
2022-07-30T12:28:34.115Z,96308.94
2022-07-30T12:29:36.428Z,96305.91
2022-07-30T12:30:39.687Z,96304.88
2022-07-30T12:31:41.914Z,96302.63
2022-07-30T12:32:48.008Z,96300.81
2022-07-30T12:33:49.724Z,96290.69
2022-07-30T12:34:58.087Z,96291.97
2022-07-30T12:36:00.996Z,96297.28
2022-07-30T12:37:10.150Z,96289.41
2022-07-30T12:38:12.313Z,96282.56
2022-07-30T12:39:20.282Z,96286.63
2022-07-30T12:40:21.919Z,96291.22
2022-07-30T12:41:40.054Z,96288.66
2022-07-30T12:42:54.146Z,96284.09
2022-07-30T12:43:56.343Z,96281.31
2022-07-30T12:44:58.355Z,96282.06
2022-07-30T12:46:00.532Z,96279.28
2022-07-30T12:47:04.515Z,96273.97